首页
METAR-TAF:

METAR-TAF

机场 :

奥兰多桑福德国际机场

奥兰多, 佛罗里达州, 美国

纬度: 28-47N, 经度: 081-15W, 海拔: 17米

当前天气观测

该预报发布于21分钟前的18:53 UTC
风速6节,风向西转西南
温度 16°C
湿度 36%
气压 1021 hPa
能見度: 16.1公里
天空无云

METAR: KSFB 271853Z 25006KT 10SM CLR 16/01 A3014 RMK AO2 SLP205 T01560011

时间: 14:14 (19:14 UTC)

预报

该预报发布于1小时和54分钟前的17:20 UTC
预报有效从27日的 18点(UTC)到 28日的 18点(UTC)
风速15节,风向西转西北,有时为21节阵风
能見度: 10公里
天空无云
从 27日的 2300点(UTC)
风速5节,风向西北
能見度: 10公里
天空无云

TAF: KSFB 271720Z 2718/2818 30015G21KT P6SM SKC FM272300 31005KT P6SM SKC

超过4000个机场的气象观测和天气预报(METAR&TAF报告)。

可查询的气象台以黄色和红色小点在地图上表示。

将鼠标移到小点上方,可查看气象台名称。

然后点击查看天气观测和预报。

如需切换地图:点击带黑十字的绿色按钮放大地图;点击带横线的绿色按钮缩小地图;或者点击绿色箭头查看邻近地区的地图。


METAR-TAF: